Time;durP1;ratioP1;P1;durP2;ratioP2;P2;SDS_P1;SDS_P2;PMS_P1;PMS_P2;Temp;Humidity;BMP_temperature;BMP_pressure;BME280_temperature;BME280_humidity;BME280_pressure;Samples;Min_cycle;Max_cycle;Signal;HPM_P1;HPM_P2
2023/12/18 00:02:02;;;;;;;;;2.00;2.00;;;;;;;;111992;1264;19582;-31
2023/12/18 00:04:29;;;;;;;;;2.00;2.00;;;;;;;;112104;1264;22332;-31
2023/12/18 00:06:57;;;;;;;;;2.00;2.00;;;;;;;;111947;1264;18994;-31
2023/12/18 00:09:24;;;;;;;;;4.00;2.00;;;;;;;;112099;1264;19477;-31
2023/12/18 00:11:52;;;;;;;;;2.00;2.00;;;;;;;;111942;1248;20387;-31
2023/12/18 00:14:19;;;;;;;;;1.00;1.00;;;;;;;;112122;1263;18929;-31
2023/12/18 00:16:47;;;;;;;;;2.00;2.00;;;;;;;;111966;1248;18549;-31
2023/12/18 00:19:14;;;;;;;;;2.00;2.00;;;;;;;;112103;1248;20398;-31
2023/12/18 00:21:41;;;;;;;;;1.00;1.00;;;;;;;;111985;1248;18682;-31
2023/12/18 00:24:09;;;;;;;;;2.00;1.00;;;;;;;;112135;1263;19578;-31
2023/12/18 00:26:36;;;;;;;;;2.00;2.00;;;;;;;;111960;1248;20359;-31
2023/12/18 00:29:04;;;;;;;;;1.50;1.50;;;;;;;;112115;1263;19432;-31
2023/12/18 00:31:31;;;;;;;;;2.00;2.00;;;;;;;;112008;1263;21276;-31
2023/12/18 00:33:58;;;;;;;;;1.00;1.00;;;;;;;;112002;1248;19021;-31
2023/12/18 00:36:26;;;;;;;;;3.00;3.00;;;;;;;;111579;1265;19700;-31
2023/12/18 00:38:53;;;;;;;;;1.50;1.50;;;;;;;;111707;1265;19627;-31
2023/12/18 00:41:21;;;;;;;;;1.00;1.00;;;;;;;;111598;1266;20368;-31
2023/12/18 00:43:48;;;;;;;;;1.33;1.33;;;;;;;;111620;1265;18726;-31
2023/12/18 00:46:15;;;;;;;;;2.00;1.00;;;;;;;;111644;1266;20050;-31
2023/12/18 00:48:43;;;;;;;;;2.00;2.00;;;;;;;;111473;1251;20438;-31
2023/12/18 00:51:10;;;;;;;;;1.67;1.67;;;;;;;;111655;1265;18713;-31
2023/12/18 00:53:38;;;;;;;;;2.00;2.00;;;;;;;;111524;1266;19610;-31
2023/12/18 00:56:05;;;;;;;;;1.00;1.00;;;;;;;;111711;1266;20300;-31
2023/12/18 00:58:32;;;;;;;;;1.00;1.00;;;;;;;;111638;1266;19488;-30
2023/12/18 01:01:00;;;;;;;;;1.00;1.00;;;;;;;;111740;1266;18499;-31
2023/12/18 01:03:27;;;;;;;;;1.00;1.00;;;;;;;;111581;1266;20528;-31
2023/12/18 01:05:55;;;;;;;;;2.00;2.00;;;;;;;;111738;1265;18708;-31
2023/12/18 01:08:22;;;;;;;;;1.67;1.67;;;;;;;;111586;1266;19450;-31
2023/12/18 01:10:50;;;;;;;;;2.00;2.00;;;;;;;;111716;1265;20275;-30
2023/12/18 01:13:17;;;;;;;;;1.00;1.00;;;;;;;;111568;1265;18932;-31
2023/12/18 01:15:44;;;;;;;;;1.00;1.00;;;;;;;;111746;1265;19626;-31
2023/12/18 01:18:12;;;;;;;;;1.00;1.00;;;;;;;;111513;1265;20340;-31
2023/12/18 01:20:39;;;;;;;;;2.00;1.00;;;;;;;;111748;1265;18585;-31
2023/12/18 01:23:07;;;;;;;;;1.50;1.50;;;;;;;;111490;1250;20742;-31
2023/12/18 01:25:34;;;;;;;;;2.00;2.00;;;;;;;;111780;1250;20923;-31
2023/12/18 01:28:01;;;;;;;;;1.67;1.67;;;;;;;;111517;1253;18849;-31
2023/12/18 01:30:29;;;;;;;;;1.33;1.00;;;;;;;;111589;1250;19926;-31
2023/12/18 01:32:56;;;;;;;;;1.00;1.00;;;;;;;;111533;1265;20665;-31
2023/12/18 01:35:24;;;;;;;;;1.00;1.00;;;;;;;;111548;1265;19702;-31
2023/12/18 01:37:51;;;;;;;;;2.00;2.00;;;;;;;;111504;1266;19566;-31
2023/12/18 01:40:19;;;;;;;;;2.00;2.00;;;;;;;;111262;1266;281229;-31
2023/12/18 01:42:46;;;;;;;;;1.00;1.00;;;;;;;;111558;1265;19463;-31
2023/12/18 01:45:13;;;;;;;;;1.00;1.00;;;;;;;;111505;1266;18439;-31
2023/12/18 01:47:41;;;;;;;;;2.00;1.00;;;;;;;;111583;1266;20358;-31
2023/12/18 01:50:08;;;;;;;;;1.00;1.00;;;;;;;;111540;1265;18626;-31
2023/12/18 01:52:36;;;;;;;;;1.00;1.00;;;;;;;;111596;1266;21291;-31
2023/12/18 01:55:03;;;;;;;;;2.00;1.00;;;;;;;;111529;1265;21692;-31
2023/12/18 01:57:30;;;;;;;;;1.00;1.00;;;;;;;;111635;1266;18803;-31
2023/12/18 01:59:58;;;;;;;;;1.33;1.33;;;;;;;;111596;1251;19565;-31
2023/12/18 02:02:25;;;;;;;;;2.00;2.00;;;;;;;;111637;1265;20372;-31
2023/12/18 02:04:53;;;;;;;;;1.67;1.67;;;;;;;;111612;1265;18773;-31
2023/12/18 02:07:20;;;;;;;;;1.00;1.00;;;;;;;;111676;1251;20958;-31
2023/12/18 02:09:47;;;;;;;;;1.00;1.00;;;;;;;;111658;1251;20238;-31
2023/12/18 02:12:15;;;;;;;;;2.00;2.00;;;;;;;;111603;1250;19385;-31
2023/12/18 02:14:42;;;;;;;;;1.33;1.33;;;;;;;;111672;1266;18550;-31
2023/12/18 02:17:10;;;;;;;;;1.00;1.00;;;;;;;;111456;1266;20512;-31
2023/12/18 02:19:37;;;;;;;;;1.33;1.33;;;;;;;;111604;1258;19316;-31
2023/12/18 02:22:04;;;;;;;;;1.00;1.00;;;;;;;;111522;1258;19609;-31
2023/12/18 02:24:32;;;;;;;;;1.00;1.00;;;;;;;;111434;1266;21534;-31
2023/12/18 02:26:59;;;;;;;;;1.00;1.00;;;;;;;;111539;1265;19019;-31
2023/12/18 02:29:27;;;;;;;;;1.00;1.00;;;;;;;;111470;1266;19619;-31
2023/12/18 02:31:54;;;;;;;;;2.00;2.00;;;;;;;;111569;1266;20402;-31
2023/12/18 02:34:21;;;;;;;;;1.00;1.00;;;;;;;;111596;1251;19387;-31
2023/12/18 02:36:49;;;;;;;;;1.00;1.00;;;;;;;;111789;1264;19493;-31
2023/12/18 02:39:16;;;;;;;;;1.00;1.00;;;;;;;;111763;1264;20402;-31
2023/12/18 02:41:44;;;;;;;;;2.00;2.00;;;;;;;;111829;1264;18936;-30
2023/12/18 02:44:11;;;;;;;;;1.00;1.00;;;;;;;;111772;1257;18753;-31
2023/12/18 02:46:39;;;;;;;;;1.00;1.00;;;;;;;;111827;1257;20710;-31
2023/12/18 02:49:06;;;;;;;;;2.00;2.00;;;;;;;;111741;1264;18675;-31
2023/12/18 02:51:34;;;;;;;;;1.00;1.00;;;;;;;;111818;1264;19611;-31
2023/12/18 02:54:01;;;;;;;;;1.00;1.00;;;;;;;;111754;1250;21482;-31
2023/12/18 02:56:28;;;;;;;;;1.50;1.00;;;;;;;;111801;1264;18797;-31
2023/12/18 02:58:56;;;;;;;;;1.00;1.00;;;;;;;;111757;1265;18452;-31
2023/12/18 03:01:23;;;;;;;;;1.00;1.00;;;;;;;;111796;1265;20326;-31
2023/12/18 03:03:51;;;;;;;;;1.33;1.33;;;;;;;;111700;1264;18747;-31
2023/12/18 03:06:18;;;;;;;;;1.00;1.00;;;;;;;;111842;1264;19435;-31
2023/12/18 03:08:45;;;;;;;;;1.00;1.00;;;;;;;;111738;1265;19029;-31
2023/12/18 03:11:13;;;;;;;;;4.00;1.00;;;;;;;;111843;1265;19406;-31
2023/12/18 03:13:40;;;;;;;;;1.00;1.00;;;;;;;;111755;1257;19891;-31
2023/12/18 03:16:08;;;;;;;;;2.00;1.00;;;;;;;;111870;1265;20381;-31
2023/12/18 03:18:35;;;;;;;;;2.00;2.00;;;;;;;;111726;1265;18858;-31
2023/12/18 03:21:03;;;;;;;;;1.00;1.00;;;;;;;;111842;1265;20946;-31
2023/12/18 03:23:30;;;;;;;;;2.00;2.00;;;;;;;;111783;1250;20401;-31
2023/12/18 03:25:58;;;;;;;;;1.00;1.00;;;;;;;;111895;1265;18839;-31
2023/12/18 03:28:25;;;;;;;;;1.67;1.67;;;;;;;;111785;1264;19596;-31
2023/12/18 03:30:52;;;;;;;;;2.00;1.33;;;;;;;;111889;1264;20554;-31
2023/12/18 03:33:20;;;;;;;;;1.00;1.00;;;;;;;;111802;1264;19153;-31
2023/12/18 03:35:47;;;;;;;;;1.00;1.00;;;;;;;;111908;1257;18479;-31
2023/12/18 03:38:15;;;;;;;;;1.00;1.00;;;;;;;;111852;1257;19076;-31
2023/12/18 03:40:42;;;;;;;;;1.50;1.50;;;;;;;;111762;1250;20434;-31
2023/12/18 03:43:10;;;;;;;;;1.00;1.00;;;;;;;;111883;1264;19855;-31
2023/12/18 03:45:37;;;;;;;;;2.00;1.00;;;;;;;;111734;1265;19037;-31
2023/12/18 03:48:05;;;;;;;;;1.00;1.00;;;;;;;;111856;1265;18731;-30
2023/12/18 03:50:32;;;;;;;;;1.00;1.00;;;;;;;;111892;1264;19504;-31
2023/12/18 03:53:00;;;;;;;;;1.00;1.00;;;;;;;;111873;1250;20393;-31
2023/12/18 03:55:27;;;;;;;;;2.00;1.00;;;;;;;;111780;1265;19018;-31
2023/12/18 03:57:54;;;;;;;;;2.00;2.00;;;;;;;;111916;1265;18641;-31
2023/12/18 04:00:22;;;;;;;;;1.00;1.00;;;;;;;;111704;1265;20371;-31
2023/12/18 04:02:49;;;;;;;;;1.67;1.67;;;;;;;;111937;1264;18653;-31
2023/12/18 04:05:17;;;;;;;;;1.00;1.00;;;;;;;;111688;1250;20606;-31
2023/12/18 04:07:44;;;;;;;;;1.00;1.00;;;;;;;;111939;1264;22203;-31
2023/12/18 04:10:12;;;;;;;;;2.00;2.00;;;;;;;;111715;1264;18767;-31
2023/12/18 04:12:40;;;;;;;;;1.00;1.00;;;;;;;;111890;1264;20745;-31
2023/12/18 04:15:07;;;;;;;;;1.00;1.00;;;;;;;;111818;1249;20313;-31
2023/12/18 04:17:35;;;;;;;;;2.00;2.00;;;;;;;;111895;1264;19031;-31
2023/12/18 04:20:02;;;;;;;;;1.00;1.00;;;;;;;;111698;1250;19842;-31
2023/12/18 04:22:29;;;;;;;;;2.00;2.00;;;;;;;;111920;1250;20766;-31
2023/12/18 04:24:57;;;;;;;;;1.00;1.00;;;;;;;;111713;1265;18758;-31
2023/12/18 04:27:24;;;;;;;;;2.00;1.00;;;;;;;;111915;1264;19607;-31
2023/12/18 04:29:52;;;;;;;;;2.00;2.00;;;;;;;;111707;1265;19139;-31
2023/12/18 04:32:19;;;;;;;;;1.00;1.00;;;;;;;;111912;1265;18703;-31
2023/12/18 04:34:46;;;;;;;;;2.00;2.00;;;;;;;;111707;1250;22646;-31
2023/12/18 04:37:14;;;;;;;;;1.50;1.50;;;;;;;;111965;1264;18941;-31
2023/12/18 04:39:41;;;;;;;;;1.00;1.00;;;;;;;;111759;1265;19041;-31
2023/12/18 04:42:09;;;;;;;;;2.00;2.00;;;;;;;;111941;1249;19781;-31
2023/12/18 04:44:36;;;;;;;;;2.00;1.00;;;;;;;;111779;1264;19213;-31
2023/12/18 04:47:03;;;;;;;;;2.00;2.00;;;;;;;;111890;1257;19825;-31
2023/12/18 04:49:31;;;;;;;;;1.00;1.00;;;;;;;;111796;1264;20083;-31
2023/12/18 04:51:58;;;;;;;;;1.00;1.00;;;;;;;;111858;1249;21500;-31
2023/12/18 04:54:26;;;;;;;;;1.00;1.00;;;;;;;;111829;1265;18791;-31
2023/12/18 04:56:53;;;;;;;;;1.00;1.00;;;;;;;;111838;1264;19592;-31
2023/12/18 04:59:20;;;;;;;;;2.00;2.00;;;;;;;;111846;1264;21440;-30
2023/12/18 05:01:48;;;;;;;;;2.00;2.00;;;;;;;;111737;1264;19351;-31
2023/12/18 05:04:15;;;;;;;;;2.00;2.00;;;;;;;;111876;1265;19541;-31
2023/12/18 05:06:42;;;;;;;;;2.00;2.00;;;;;;;;111729;1250;19049;-31
2023/12/18 05:09:10;;;;;;;;;1.00;1.00;;;;;;;;111897;1264;18762;-31
2023/12/18 05:11:37;;;;;;;;;2.00;1.00;;;;;;;;111759;1265;18440;-31
2023/12/18 05:14:05;;;;;;;;;1.00;1.00;;;;;;;;111905;1265;19080;-31
2023/12/18 05:16:32;;;;;;;;;1.00;1.00;;;;;;;;111702;1264;19581;-31
2023/12/18 05:18:59;;;;;;;;;2.00;2.00;;;;;;;;111915;1264;19602;-31
2023/12/18 05:21:28;;;;;;;;;1.00;1.00;;;;;;;;111680;1265;21420;-31
2023/12/18 05:23:56;;;;;;;;;1.00;1.00;;;;;;;;111808;1265;18715;-31
2023/12/18 05:26:23;;;;;;;;;2.00;2.00;;;;;;;;111694;1265;19568;-31
2023/12/18 05:28:51;;;;;;;;;2.00;2.00;;;;;;;;111807;1257;20389;-31
2023/12/18 05:31:20;;;;;;;;;2.00;2.00;;;;;;;;111706;1264;18817;-31
2023/12/18 05:33:48;;;;;;;;;2.00;2.00;;;;;;;;111725;1264;21380;-30
2023/12/18 05:36:16;;;;;;;;;2.00;2.00;;;;;;;;111821;1265;19022;-31
2023/12/18 05:38:43;;;;;;;;;1.00;1.00;;;;;;;;111713;1265;18899;-31
2023/12/18 05:41:10;;;;;;;;;2.00;2.00;;;;;;;;111834;1264;19615;-31
2023/12/18 05:43:38;;;;;;;;;2.00;1.00;;;;;;;;111717;1250;21407;-31
2023/12/18 05:46:05;;;;;;;;;2.00;1.00;;;;;;;;111840;1264;18717;-31
2023/12/18 05:48:33;;;;;;;;;2.00;1.00;;;;;;;;111776;1265;19612;-31
2023/12/18 05:51:00;;;;;;;;;1.50;1.50;;;;;;;;111853;1264;20281;-31
2023/12/18 05:53:27;;;;;;;;;2.00;2.00;;;;;;;;111798;1264;18700;-31
2023/12/18 05:55:55;;;;;;;;;2.00;2.00;;;;;;;;111890;1264;18678;-31
2023/12/18 05:58:22;;;;;;;;;1.00;1.00;;;;;;;;111793;1264;19181;-31
2023/12/18 06:00:50;;;;;;;;;1.00;1.00;;;;;;;;111885;1264;19941;-31
2023/12/18 06:03:17;;;;;;;;;2.00;2.00;;;;;;;;111748;1264;19532;-31
2023/12/18 06:05:46;;;;;;;;;1.50;1.50;;;;;;;;111913;1249;20125;-31
2023/12/18 06:08:13;;;;;;;;;2.00;2.00;;;;;;;;111746;1250;18768;-31
2023/12/18 06:10:40;;;;;;;;;2.00;2.00;;;;;;;;111826;1250;20951;-31
2023/12/18 06:13:08;;;;;;;;;1.50;1.50;;;;;;;;111751;1264;20325;-31
2023/12/18 06:15:35;;;;;;;;;2.00;2.00;;;;;;;;111842;1264;18507;-31
2023/12/18 06:18:03;;;;;;;;;2.00;1.00;;;;;;;;111783;1264;19309;-31
2023/12/18 06:20:30;;;;;;;;;2.00;2.00;;;;;;;;111858;1265;20348;-31
2023/12/18 06:22:57;;;;;;;;;1.50;1.50;;;;;;;;111823;1265;19582;-31
2023/12/18 06:25:25;;;;;;;;;2.00;2.00;;;;;;;;111878;1264;19667;-31
2023/12/18 06:27:52;;;;;;;;;2.00;1.00;;;;;;;;111823;1250;20590;-31
2023/12/18 06:30:20;;;;;;;;;2.00;2.00;;;;;;;;111874;1264;18974;-31
2023/12/18 06:32:47;;;;;;;;;2.00;2.00;;;;;;;;111805;1264;21578;-31
2023/12/18 06:35:15;;;;;;;;;2.00;2.00;;;;;;;;111786;1249;20799;-31
2023/12/18 06:37:42;;;;;;;;;2.00;2.00;;;;;;;;111726;1257;19040;-31
2023/12/18 06:40:10;;;;;;;;;2.00;2.00;;;;;;;;111865;1264;19636;-31
2023/12/18 06:42:37;;;;;;;;;1.00;1.00;;;;;;;;111815;1249;21488;-31
2023/12/18 06:45:05;;;;;;;;;2.00;2.00;;;;;;;;111720;1264;18912;-31
2023/12/18 06:47:33;;;;;;;;;2.00;2.00;;;;;;;;111827;1250;18951;-30
2023/12/18 06:50:00;;;;;;;;;2.00;2.00;;;;;;;;111806;1264;20518;-30
2023/12/18 06:52:27;;;;;;;;;2.00;2.00;;;;;;;;111871;1250;18819;-31
2023/12/18 06:54:55;;;;;;;;;1.00;1.00;;;;;;;;111735;1250;19846;-30
2023/12/18 06:57:22;;;;;;;;;2.00;1.50;;;;;;;;111869;1251;20444;-31
2023/12/18 06:59:50;;;;;;;;;1.67;1.67;;;;;;;;111775;1264;19534;-31
2023/12/18 07:02:17;;;;;;;;;2.00;2.00;;;;;;;;111805;1250;19575;-31
2023/12/18 07:04:44;;;;;;;;;2.00;2.00;;;;;;;;111748;1264;19150;-31
2023/12/18 07:07:12;;;;;;;;;1.00;1.00;;;;;;;;111717;1264;18910;-31
2023/12/18 07:09:39;;;;;;;;;2.00;2.00;;;;;;;;111746;1265;19606;-31
2023/12/18 07:12:07;;;;;;;;;1.50;1.50;;;;;;;;111689;1264;20509;-31
2023/12/18 07:14:34;;;;;;;;;4.00;2.00;;;;;;;;111766;1265;18647;-31
2023/12/18 07:17:02;;;;;;;;;2.00;2.00;;;;;;;;111695;1265;19635;-31
2023/12/18 07:19:29;;;;;;;;;2.00;2.00;;;;;;;;111798;1250;20410;-31
2023/12/18 07:21:57;;;;;;;;;1.00;1.00;;;;;;;;111678;1265;18856;-31
2023/12/18 07:24:24;;;;;;;;;1.67;1.67;;;;;;;;111796;1265;19595;-31
2023/12/18 07:26:51;;;;;;;;;4.00;2.00;;;;;;;;111738;1259;20880;-30
2023/12/18 07:29:19;;;;;;;;;2.00;2.00;;;;;;;;111790;1265;18620;-31
2023/12/18 07:31:46;;;;;;;;;2.00;2.00;;;;;;;;111741;1265;19525;-31
2023/12/18 07:34:14;;;;;;;;;2.00;2.00;;;;;;;;111714;1265;19062;-31
2023/12/18 07:36:41;;;;;;;;;1.50;1.50;;;;;;;;111790;1257;19885;-31
2023/12/18 07:39:09;;;;;;;;;1.00;1.00;;;;;;;;111837;1264;18836;-31
2023/12/18 07:41:36;;;;;;;;;2.00;2.00;;;;;;;;111754;1265;19535;-31
2023/12/18 07:44:04;;;;;;;;;2.00;2.00;;;;;;;;111829;1257;19620;-31
2023/12/18 07:46:31;;;;;;;;;4.00;3.00;;;;;;;;111760;1265;18621;-31
2023/12/18 07:48:58;;;;;;;;;2.00;2.00;;;;;;;;111799;1250;20427;-31
2023/12/18 07:51:26;;;;;;;;;2.00;2.00;;;;;;;;111714;1249;20094;-31
2023/12/18 07:53:53;;;;;;;;;2.00;2.00;;;;;;;;111839;1257;19897;-31
2023/12/18 07:56:21;;;;;;;;;2.00;2.00;;;;;;;;111728;1265;19051;-31
2023/12/18 07:58:49;;;;;;;;;2.00;2.00;;;;;;;;111841;1264;18834;-31
2023/12/18 08:01:18;;;;;;;;;2.00;2.00;;;;;;;;111747;1264;19364;-31
2023/12/18 08:03:45;;;;;;;;;2.00;2.00;;;;;;;;111761;1249;20389;-31
2023/12/18 08:06:13;;;;;;;;;2.00;2.00;;;;;;;;111853;1264;18701;-31
2023/12/18 08:08:40;;;;;;;;;2.00;2.00;;;;;;;;111782;1265;20690;-31
2023/12/18 08:11:07;;;;;;;;;2.00;2.00;;;;;;;;111868;1264;19035;-31
2023/12/18 08:13:38;;;;;;;;;2.00;2.00;;;;;;;;111827;1257;18877;-31
2023/12/18 08:16:06;;;;;;;;;2.00;2.00;;;;;;;;111735;1265;18724;-31
2023/12/18 08:18:33;;;;;;;;;2.00;2.00;;;;;;;;111844;1264;20211;-31
2023/12/18 08:21:01;;;;;;;;;2.00;2.00;;;;;;;;111735;1265;18656;-31
2023/12/18 08:23:28;;;;;;;;;4.00;2.00;;;;;;;;111843;1264;18587;-31
2023/12/18 08:25:56;;;;;;;;;4.00;4.00;;;;;;;;111761;1265;19197;-31
2023/12/18 08:28:23;;;;;;;;;2.00;2.00;;;;;;;;111838;1249;18844;-31
2023/12/18 08:30:50;;;;;;;;;7.00;7.00;;;;;;;;111785;1265;18539;-31
2023/12/18 08:33:18;;;;;;;;;5.00;5.00;;;;;;;;111766;1257;19362;-31
2023/12/18 08:35:45;;;;;;;;;7.00;5.00;;;;;;;;111756;1264;18729;-31
2023/12/18 08:38:13;;;;;;;;;7.00;5.00;;;;;;;;111898;1265;18707;-31
2023/12/18 08:40:41;;;;;;;;;5.00;5.00;;;;;;;;111775;1265;19048;-31
2023/12/18 08:43:08;;;;;;;;;7.00;5.00;;;;;;;;111877;1265;19433;-31
2023/12/18 08:45:35;;;;;;;;;5.00;5.00;;;;;;;;111816;1250;18509;-31
2023/12/18 08:48:03;;;;;;;;;5.00;5.00;;;;;;;;111858;1250;20462;-31
2023/12/18 08:50:30;;;;;;;;;8.00;7.00;;;;;;;;111829;1264;19089;-31
2023/12/18 08:52:58;;;;;;;;;7.33;7.00;;;;;;;;111852;1264;19792;-31
2023/12/18 08:55:25;;;;;;;;;11.00;8.00;;;;;;;;111887;1264;19373;-31
2023/12/18 08:57:52;;;;;;;;;7.00;7.00;;;;;;;;111864;1264;18778;-31
2023/12/18 09:00:20;;;;;;;;;10.00;8.00;;;;;;;;111905;1249;19770;-31
2023/12/18 09:02:47;;;;;;;;;7.00;7.00;;;;;;;;111754;1250;20720;-31
2023/12/18 09:05:15;;;;;;;;;8.00;7.00;;;;;;;;111896;1264;18634;-31
2023/12/18 09:07:42;;;;;;;;;10.50;10.50;;;;;;;;111692;1250;19705;-31
2023/12/18 09:10:11;;;;;;;;;8.00;8.00;;;;;;;;111932;1262;20443;-31
2023/12/18 09:12:38;;;;;;;;;8.67;8.00;;;;;;;;111886;1257;18867;-31
2023/12/18 09:15:06;;;;;;;;;13.00;12.00;;;;;;;;111801;1265;18638;-32
2023/12/18 09:17:34;;;;;;;;;11.00;10.50;;;;;;;;111937;1264;20368;-31
2023/12/18 09:20:03;;;;;;;;;10.00;10.00;;;;;;;;111689;1264;18813;-31
2023/12/18 09:22:30;;;;;;;;;14.00;13.00;;;;;;;;111863;1264;19863;-31
2023/12/18 09:24:58;;;;;;;;;14.00;11.33;;;;;;;;111832;1265;19211;-31
2023/12/18 09:27:25;;;;;;;;;12.00;10.00;;;;;;;;111890;1264;18826;-31
2023/12/18 09:29:52;;;;;;;;;12.00;12.00;;;;;;;;111709;1250;19487;-31
2023/12/18 09:32:20;;;;;;;;;12.50;11.00;;;;;;;;111878;1265;20164;-31
2023/12/18 09:34:47;;;;;;;;;9.50;9.50;;;;;;;;111605;1250;19753;-31
2023/12/18 09:37:15;;;;;;;;;10.67;10.00;;;;;;;;111743;1266;20891;-31
2023/12/18 09:39:42;;;;;;;;;12.00;12.00;;;;;;;;111455;1266;22174;-31
2023/12/18 09:42:10;;;;;;;;;13.00;12.50;;;;;;;;111768;1266;18602;-31
2023/12/18 09:44:37;;;;;;;;;12.00;12.00;;;;;;;;111449;1266;19786;-30
2023/12/18 09:47:04;;;;;;;;;15.50;13.00;;;;;;;;111788;1251;20585;-31
2023/12/18 09:49:32;;;;;;;;;12.00;12.00;;;;;;;;111470;1266;18917;-31
2023/12/18 09:52:00;;;;;;;;;13.00;13.00;;;;;;;;111730;1265;19772;-31
2023/12/18 09:54:27;;;;;;;;;13.00;12.00;;;;;;;;111476;1251;19146;-31
2023/12/18 09:56:55;;;;;;;;;13.50;12.50;;;;;;;;111704;1266;18451;-31
2023/12/18 09:59:22;;;;;;;;;15.00;15.00;;;;;;;;111505;1251;19659;-31
2023/12/18 10:01:50;;;;;;;;;12.00;12.00;;;;;;;;111748;1266;21729;-31
2023/12/18 10:04:17;;;;;;;;;14.00;12.50;;;;;;;;111466;1250;18917;-32
2023/12/18 10:06:45;;;;;;;;;14.33;13.00;;;;;;;;111772;1259;22050;-32
2023/12/18 10:09:12;;;;;;;;;14.50;12.50;;;;;;;;111531;1266;19071;-31
2023/12/18 10:11:40;;;;;;;;;15.00;15.00;;;;;;;;111766;1258;18960;-31
2023/12/18 10:14:07;;;;;;;;;13.00;12.33;;;;;;;;111505;1265;19704;-31
2023/12/18 10:16:35;;;;;;;;;15.50;13.00;;;;;;;;111778;1251;20392;-31
2023/12/18 10:19:02;;;;;;;;;12.50;12.00;;;;;;;;111501;1266;18931;-31
2023/12/18 10:21:29;;;;;;;;;11.00;10.00;;;;;;;;111789;1266;18448;-31
2023/12/18 10:23:57;;;;;;;;;12.00;10.00;;;;;;;;111479;1266;19451;-31
2023/12/18 10:26:25;;;;;;;;;12.00;10.00;;;;;;;;111755;1266;18955;-31
2023/12/18 10:28:52;;;;;;;;;12.50;11.00;;;;;;;;111498;1250;20817;-31
2023/12/18 10:31:20;;;;;;;;;15.00;13.00;;;;;;;;111745;1265;20703;-32
2023/12/18 10:33:47;;;;;;;;;12.00;11.00;;;;;;;;111557;1250;19787;-31
2023/12/18 10:36:14;;;;;;;;;12.00;12.00;;;;;;;;111807;1250;18473;-31
2023/12/18 10:38:42;;;;;;;;;10.00;10.00;;;;;;;;111463;1266;21739;-31
2023/12/18 10:41:09;;;;;;;;;17.00;15.00;;;;;;;;111793;1266;18756;-31
2023/12/18 10:43:37;;;;;;;;;9.00;9.00;;;;;;;;111468;1258;20112;-31
2023/12/18 10:46:04;;;;;;;;;10.00;10.00;;;;;;;;111794;1265;20260;-31
2023/12/18 10:48:31;;;;;;;;;12.33;10.67;;;;;;;;111499;1259;19447;-31
2023/12/18 10:50:59;;;;;;;;;10.00;10.00;;;;;;;;111534;1266;18570;-31
2023/12/18 10:53:26;;;;;;;;;12.00;12.00;;;;;;;;111547;1258;20474;-31
2023/12/18 10:55:54;;;;;;;;;12.33;12.00;;;;;;;;111457;1258;19573;-31
2023/12/18 10:58:21;;;;;;;;;12.00;10.00;;;;;;;;111560;1251;19663;-31
2023/12/18 11:00:49;;;;;;;;;12.00;12.00;;;;;;;;111447;1266;23288;-31
2023/12/18 11:03:18;;;;;;;;;12.00;12.00;;;;;;;;111550;1265;18761;-31
2023/12/18 11:05:48;;;;;;;;;12.00;12.00;;;;;;;;111697;1251;20085;-31
2023/12/18 11:08:15;;;;;;;;;10.00;10.00;;;;;;;;111719;1265;20576;-31
2023/12/18 11:10:42;;;;;;;;;15.00;12.00;;;;;;;;111627;1266;18624;-31
2023/12/18 11:13:10;;;;;;;;;17.00;13.00;;;;;;;;111777;1265;19583;-31
2023/12/18 11:15:37;;;;;;;;;15.00;12.00;;;;;;;;111537;1251;20311;-31
2023/12/18 11:18:05;;;;;;;;;12.50;12.50;;;;;;;;111708;1265;18890;-31
2023/12/18 11:20:32;;;;;;;;;10.00;10.00;;;;;;;;111550;1266;18891;-31
2023/12/18 11:23:00;;;;;;;;;14.00;12.00;;;;;;;;111522;1259;21499;-31
2023/12/18 11:25:27;;;;;;;;;15.00;15.00;;;;;;;;111440;1265;18771;-31
2023/12/18 11:27:54;;;;;;;;;11.00;11.00;;;;;;;;111464;1253;19858;-31
2023/12/18 11:30:22;;;;;;;;;14.00;14.00;;;;;;;;111458;1258;19219;-31
2023/12/18 11:32:49;;;;;;;;;14.00;10.00;;;;;;;;111491;1265;18757;-31
2023/12/18 11:35:17;;;;;;;;;10.00;10.00;;;;;;;;111587;1265;20308;-31
2023/12/18 11:37:44;;;;;;;;;10.00;10.00;;;;;;;;111507;1258;20939;-31
2023/12/18 11:40:11;;;;;;;;;11.00;11.00;;;;;;;;111544;1266;18903;-31
2023/12/18 11:42:39;;;;;;;;;12.67;12.00;;;;;;;;111521;1266;19709;-31
2023/12/18 11:45:06;;;;;;;;;12.67;12.00;;;;;;;;111530;1266;19125;-31
2023/12/18 11:47:34;;;;;;;;;9.00;9.00;;;;;;;;111528;1251;18744;-31
2023/12/18 11:50:01;;;;;;;;;13.00;12.00;;;;;;;;111584;1265;18784;-31
2023/12/18 11:52:28;;;;;;;;;11.00;9.00;;;;;;;;111566;1258;21366;-31
2023/12/18 11:54:56;;;;;;;;;13.00;12.00;;;;;;;;111590;1266;19018;-31
2023/12/18 11:57:23;;;;;;;;;10.00;9.00;;;;;;;;111566;1250;20217;-31
2023/12/18 11:59:51;;;;;;;;;9.00;7.00;;;;;;;;111619;1266;18943;-31
2023/12/18 12:02:18;;;;;;;;;8.33;7.00;;;;;;;;111621;1265;18681;-31
2023/12/18 12:04:46;;;;;;;;;7.00;6.00;;;;;;;;111648;1266;22071;-31
2023/12/18 12:07:13;;;;;;;;;7.67;7.67;;;;;;;;111639;1266;20702;-31
2023/12/18 12:09:43;;;;;;;;;9.00;9.00;;;;;;;;111544;1266;18752;-31
2023/12/18 12:12:11;;;;;;;;;9.00;7.00;;;;;;;;111490;1251;18741;-31
2023/12/18 12:14:39;;;;;;;;;7.00;7.00;;;;;;;;111598;1266;20306;-30
2023/12/18 12:17:06;;;;;;;;;6.00;6.00;;;;;;;;111560;1266;18983;-31
2023/12/18 12:19:34;;;;;;;;;6.00;6.00;;;;;;;;111570;1266;19846;-31
2023/12/18 12:22:01;;;;;;;;;7.00;6.00;;;;;;;;111577;1266;20325;-30
2023/12/18 12:24:28;;;;;;;;;6.00;6.00;;;;;;;;111587;1266;18544;-30
2023/12/18 12:26:56;;;;;;;;;6.00;6.00;;;;;;;;111521;1266;20665;-30
2023/12/18 12:29:24;;;;;;;;;9.00;7.00;;;;;;;;111626;1250;20406;-30
2023/12/18 12:31:52;;;;;;;;;6.00;4.00;;;;;;;;111478;1265;18980;-30
2023/12/18 12:34:19;;;;;;;;;4.00;4.00;;;;;;;;111708;1265;19968;-30
2023/12/18 12:36:47;;;;;;;;;4.00;4.00;;;;;;;;111502;1266;19033;-30
2023/12/18 12:39:14;;;;;;;;;3.33;3.00;;;;;;;;111686;1266;19588;-31
2023/12/18 12:41:41;;;;;;;;;7.00;4.00;;;;;;;;111523;1250;19907;-30
2023/12/18 12:44:09;;;;;;;;;4.00;4.00;;;;;;;;111653;1250;19328;-30
2023/12/18 12:46:36;;;;;;;;;6.50;6.00;;;;;;;;111533;1250;18947;-31
2023/12/18 12:49:04;;;;;;;;;6.00;6.00;;;;;;;;111610;1266;18766;-30
2023/12/18 12:51:31;;;;;;;;;6.00;6.00;;;;;;;;111430;1266;19079;-31
2023/12/18 12:53:59;;;;;;;;;4.00;4.00;;;;;;;;111686;1258;19548;-31
2023/12/18 12:56:26;;;;;;;;;3.50;3.50;;;;;;;;111511;1250;18671;-31
2023/12/18 12:58:54;;;;;;;;;33.00;30.00;;;;;;;;111647;1265;19082;-30
2023/12/18 13:01:22;;;;;;;;;22.00;21.00;;;;;;;;111488;1266;18638;-30
2023/12/18 13:03:50;;;;;;;;;19.50;18.50;;;;;;;;111831;1266;18781;-31
2023/12/18 13:06:19;;;;;;;;;24.50;20.00;;;;;;;;111773;1251;20368;-31
2023/12/18 13:08:47;;;;;;;;;20.50;17.50;;;;;;;;111470;1266;18846;-30
2023/12/18 13:11:15;;;;;;;;;17.00;16.00;;;;;;;;111826;1254;19791;-30
2023/12/18 13:13:42;;;;;;;;;16.00;13.00;;;;;;;;111538;1265;18898;-30
2023/12/18 13:16:09;;;;;;;;;10.00;10.00;;;;;;;;111775;1265;19416;-31
2023/12/18 13:18:37;;;;;;;;;10.00;10.00;;;;;;;;111490;1251;21376;-31
2023/12/18 13:21:04;;;;;;;;;11.00;8.00;;;;;;;;111801;1251;20523;-31
2023/12/18 13:23:31;;;;;;;;;8.00;7.00;;;;;;;;111476;1266;18793;-32
2023/12/18 13:25:58;;;;;;;;;7.00;7.00;;;;;;;;111657;1258;19882;-31
2023/12/18 13:28:26;;;;;;;;;8.00;7.00;;;;;;;;111554;1251;20545;-31
2023/12/18 13:30:53;;;;;;;;;7.00;5.00;;;;;;;;111696;1251;18846;-32
2023/12/18 13:33:20;;;;;;;;;4.00;4.00;;;;;;;;111672;1265;19578;-32
2023/12/18 13:35:48;;;;;;;;;5.00;5.00;;;;;;;;111907;1264;19404;-31
2023/12/18 13:38:15;;;;;;;;;7.00;5.00;;;;;;;;111887;1249;18626;-31
2023/12/18 13:40:42;;;;;;;;;5.00;4.00;;;;;;;;111625;1251;317384;-31
2023/12/18 13:43:10;;;;;;;;;5.00;4.00;;;;;;;;111925;1250;20481;-31
2023/12/18 13:45:37;;;;;;;;;4.00;4.00;;;;;;;;111707;1257;19026;-31
2023/12/18 13:48:04;;;;;;;;;5.00;4.00;;;;;;;;111946;1250;19854;-31
2023/12/18 13:50:32;;;;;;;;;5.00;2.00;;;;;;;;111714;1249;19403;-31
2023/12/18 13:52:59;;;;;;;;;5.00;4.00;;;;;;;;111975;1257;18522;-31
2023/12/18 13:55:27;;;;;;;;;2.67;2.67;;;;;;;;111763;1257;19880;-31
2023/12/18 13:57:56;;;;;;;;;4.00;4.00;;;;;;;;111970;1257;21029;-31
2023/12/18 14:00:24;;;;;;;;;2.00;2.00;;;;;;;;111916;1257;19635;-31
2023/12/18 14:02:51;;;;;;;;;2.00;2.00;;;;;;;;111814;1249;19706;-31
2023/12/18 14:05:18;;;;;;;;;4.00;4.00;;;;;;;;111871;1264;20366;-31
2023/12/18 14:07:45;;;;;;;;;2.00;2.00;;;;;;;;111835;1265;18851;-31
2023/12/18 14:10:13;;;;;;;;;2.00;2.00;;;;;;;;111902;1249;19896;-31
2023/12/18 14:12:40;;;;;;;;;2.00;2.00;;;;;;;;111891;1264;20282;-31
2023/12/18 14:15:07;;;;;;;;;4.00;2.00;;;;;;;;111704;1260;18598;-31
2023/12/18 14:17:35;;;;;;;;;4.00;4.00;;;;;;;;111910;1264;21407;-31
2023/12/18 14:20:03;;;;;;;;;4.00;4.00;;;;;;;;111691;1250;20490;-31
2023/12/18 14:22:31;;;;;;;;;2.00;2.00;;;;;;;;111800;1249;18979;-31
2023/12/18 14:25:00;;;;;;;;;2.00;2.00;;;;;;;;111914;1257;18647;-31